createdAt,value
2023-02-04T00:00:37.796Z,5.55
2023-02-04T00:03:25.922Z,6.35
2023-02-04T00:05:54.251Z,6.50
2023-02-04T00:08:22.124Z,6.80
2023-02-04T00:10:52.718Z,4.72
2023-02-04T00:13:20.615Z,6.60
2023-02-04T00:15:48.968Z,6.05
2023-02-04T00:18:16.932Z,7.47
2023-02-04T00:20:45.232Z,5.50
2023-02-04T00:23:13.206Z,5.85
2023-02-04T00:25:41.371Z,7.63
2023-02-04T00:28:10.418Z,6.00
2023-02-04T00:30:38.625Z,5.45
2023-02-04T00:33:06.566Z,4.95
2023-02-04T00:35:38.355Z,6.10
2023-02-04T00:38:07.087Z,5.70
2023-02-04T00:40:35.257Z,5.15
2023-02-04T00:43:03.192Z,4.38
2023-02-04T00:45:31.471Z,5.40
2023-02-04T00:48:00.546Z,6.05
2023-02-04T00:50:29.167Z,5.63
2023-02-04T00:52:57.797Z,5.93
2023-02-04T00:55:27.406Z,5.93
2023-02-04T00:57:55.457Z,5.20
2023-02-04T01:00:24.546Z,4.47
2023-02-04T01:02:54.122Z,5.00
2023-02-04T01:05:22.670Z,4.45
2023-02-04T01:07:50.615Z,4.85
2023-02-04T01:10:19.904Z,3.97
2023-02-04T01:12:47.966Z,4.57
2023-02-04T01:15:16.504Z,5.03
2023-02-04T01:17:44.274Z,5.05
2023-02-04T01:20:12.882Z,4.22
2023-02-04T01:22:41.068Z,6.57
2023-02-04T01:25:09.444Z,4.47
2023-02-04T01:27:45.541Z,4.35
2023-02-04T01:30:15.793Z,5.03
2023-02-04T01:32:43.716Z,4.32
2023-02-04T01:35:13.535Z,3.40
2023-02-04T01:37:42.385Z,6.65
2023-02-04T01:40:13.373Z,4.97
2023-02-04T01:42:44.078Z,4.53
2023-02-04T01:45:12.604Z,5.32
2023-02-04T01:47:40.679Z,4.65
2023-02-04T01:50:13.587Z,4.05
2023-02-04T01:52:42.521Z,5.05
2023-02-04T01:55:19.648Z,5.45
2023-02-04T01:57:48.098Z,7.97
2023-02-04T02:00:19.906Z,8.93
2023-02-04T02:02:51.942Z,6.65
2023-02-04T02:05:42.015Z,6.45
2023-02-04T02:08:11.321Z,5.45
2023-02-04T02:10:42.389Z,6.75
2023-02-04T02:13:13.309Z,6.80
2023-02-04T02:15:42.958Z,6.50
2023-02-04T02:18:11.561Z,5.97
2023-02-04T02:20:40.095Z,7.32
2023-02-04T02:23:43.381Z,6.57
2023-02-04T02:26:11.866Z,6.50
2023-02-04T02:28:40.653Z,7.38
2023-02-04T02:31:10.348Z,7.80
2023-02-04T02:33:39.297Z,7.00
2023-02-04T02:36:08.207Z,8.23
2023-02-04T02:38:36.400Z,7.03
2023-02-04T02:41:06.213Z,9.50
2023-02-04T02:43:34.993Z,7.05
2023-02-04T02:46:03.456Z,6.65
2023-02-04T02:48:33.245Z,8.02
2023-02-04T02:51:02.531Z,8.55
2023-02-04T02:53:30.411Z,6.72
2023-02-04T02:55:59.362Z,8.07
2023-02-04T02:58:33.502Z,6.97
2023-02-04T03:01:06.759Z,7.22
2023-02-04T03:03:40.627Z,9.73
2023-02-04T03:06:14.609Z,7.43
2023-02-04T03:08:45.170Z,7.35
2023-02-04T03:11:13.357Z,8.35
2023-02-04T03:13:42.692Z,6.90
2023-02-04T03:16:11.540Z,7.15
2023-02-04T03:18:39.978Z,6.63
2023-02-04T03:21:08.899Z,14.35
2023-02-04T03:23:39.443Z,6.97
2023-02-04T03:26:08.036Z,7.13
2023-02-04T03:28:40.468Z,7.47
2023-02-04T03:31:09.897Z,6.60
2023-02-04T03:33:38.098Z,6.47
2023-02-04T03:36:06.763Z,7.70
2023-02-04T03:38:34.819Z,6.13
2023-02-04T03:41:03.341Z,6.47
2023-02-04T03:43:34.024Z,9.38
2023-02-04T03:46:02.812Z,7.65
2023-02-04T03:48:30.761Z,4.97
2023-02-04T03:50:59.171Z,5.07
2023-02-04T03:53:27.107Z,4.53
2023-02-04T03:55:55.483Z,5.47
2023-02-04T03:58:23.304Z,4.82
2023-02-04T04:00:51.659Z,3.65
2023-02-04T04:03:19.943Z,10.32
2023-02-04T04:05:48.797Z,3.70
2023-02-04T04:08:16.614Z,6.85
2023-02-04T04:10:44.955Z,4.57
2023-02-04T04:13:12.898Z,3.78
2023-02-04T04:15:41.219Z,5.30
2023-02-04T04:18:09.074Z,4.85
2023-02-04T04:20:37.417Z,4.80
2023-02-04T04:23:05.273Z,5.45
2023-02-04T04:25:33.664Z,3.05
2023-02-04T04:28:02.370Z,2.92
2023-02-04T04:30:31.013Z,3.97
2023-02-04T04:32:58.967Z,3.63
2023-02-04T04:35:27.243Z,4.18
2023-02-04T04:37:55.062Z,4.75
2023-02-04T04:40:23.535Z,4.38
2023-02-04T04:42:51.531Z,4.95
2023-02-04T04:45:21.428Z,3.38
2023-02-04T04:47:49.290Z,3.20
2023-02-04T04:50:17.578Z,3.60
2023-02-04T04:52:45.494Z,3.70
2023-02-04T04:55:13.736Z,4.15
2023-02-04T04:57:41.793Z,3.25
2023-02-04T05:00:16.117Z,3.45
2023-02-04T05:02:44.139Z,5.25
2023-02-04T05:05:13.642Z,4.22
2023-02-04T05:07:41.687Z,4.20
2023-02-04T05:10:10.344Z,4.18
2023-02-04T05:12:38.533Z,4.05
2023-02-04T05:15:07.229Z,5.78
2023-02-04T05:17:37.010Z,4.90
2023-02-04T05:20:05.594Z,4.50
2023-02-04T05:22:33.441Z,6.57
2023-02-04T05:25:01.906Z,4.95
2023-02-04T05:27:31.437Z,9.30
2023-02-04T05:29:59.819Z,9.60
2023-02-04T05:32:28.776Z,6.97
2023-02-04T05:34:57.213Z,8.05
2023-02-04T05:37:25.003Z,9.30
2023-02-04T05:39:53.238Z,7.40
2023-02-04T05:42:22.012Z,15.15
2023-02-04T05:44:50.439Z,11.00
2023-02-04T05:47:20.734Z,6.57
2023-02-04T05:49:48.960Z,8.23
2023-02-04T05:52:16.736Z,11.32
2023-02-04T05:54:44.966Z,5.68
2023-02-04T05:57:12.716Z,7.95
2023-02-04T05:59:41.046Z,7.90
2023-02-04T06:02:09.333Z,7.00
2023-02-04T06:04:37.645Z,9.57
2023-02-04T06:07:05.674Z,6.93
2023-02-04T06:09:35.240Z,10.85
2023-02-04T06:12:03.043Z,8.55
2023-02-04T06:14:31.733Z,9.68
2023-02-04T06:17:00.939Z,5.70
2023-02-04T06:19:30.026Z,6.68
2023-02-04T06:21:57.812Z,7.18
2023-02-04T06:24:26.034Z,9.38
2023-02-04T06:26:53.946Z,11.25
2023-02-04T06:29:22.373Z,13.13
2023-02-04T06:31:53.756Z,17.75
2023-02-04T06:34:22.062Z,14.30
2023-02-04T06:36:49.825Z,11.98
2023-02-04T06:39:18.968Z,14.65
2023-02-04T06:41:46.783Z,14.48
2023-02-04T06:44:15.023Z,10.77
2023-02-04T06:46:43.154Z,16.48
2023-02-04T06:49:11.329Z,15.88
2023-02-04T06:51:39.132Z,19.63
2023-02-04T06:54:07.416Z,15.70
2023-02-04T06:56:35.165Z,15.23
2023-02-04T06:59:03.556Z,16.63
2023-02-04T07:01:31.455Z,11.77
2023-02-04T07:03:59.879Z,18.73
2023-02-04T07:06:27.758Z,19.35
2023-02-04T07:08:56.137Z,11.93
2023-02-04T07:11:23.879Z,13.45
2023-02-04T07:13:52.099Z,17.48
2023-02-04T07:16:19.986Z,15.20
2023-02-04T07:18:48.246Z,14.98
2023-02-04T07:21:16.014Z,15.20
2023-02-04T07:23:44.295Z,15.10
2023-02-04T07:26:12.468Z,17.20
2023-02-04T07:28:41.706Z,14.63
2023-02-04T07:31:09.845Z,15.73
2023-02-04T07:33:38.757Z,21.10
2023-02-04T07:36:09.463Z,19.15
2023-02-04T07:38:38.123Z,21.35
2023-02-04T07:41:06.092Z,23.17
2023-02-04T07:43:34.875Z,13.35
2023-02-04T07:46:02.694Z,19.08
2023-02-04T07:48:32.383Z,20.45
2023-02-04T07:51:00.305Z,18.13
2023-02-04T07:53:29.055Z,15.02
2023-02-04T07:55:57.002Z,13.80
2023-02-04T07:58:25.260Z,19.05
2023-02-04T08:00:55.299Z,26.23
2023-02-04T08:03:23.923Z,13.45
2023-02-04T08:05:51.958Z,20.42
2023-02-04T08:08:23.204Z,12.38
2023-02-04T08:10:54.607Z,12.30
2023-02-04T08:13:22.797Z,15.57
2023-02-04T08:15:50.923Z,15.73
2023-02-04T08:18:19.323Z,14.35
2023-02-04T08:20:47.228Z,17.95
2023-02-04T08:23:15.482Z,17.60
2023-02-04T08:25:43.243Z,16.10
2023-02-04T08:28:12.590Z,14.02
2023-02-04T09:29:00.561Z,7.78
2023-02-04T09:31:29.199Z,9.90
2023-02-04T09:33:58.094Z,12.27
2023-02-04T09:36:29.545Z,14.27
2023-02-04T09:38:57.365Z,7.22
2023-02-04T09:41:25.505Z,7.55
2023-02-04T09:43:53.498Z,7.13
2023-02-04T09:46:24.230Z,7.63
2023-02-04T09:48:52.790Z,5.65
2023-02-04T09:51:25.446Z,7.47
2023-02-04T09:53:56.166Z,10.50
2023-02-04T09:56:25.866Z,6.07
2023-02-04T09:58:53.800Z,7.70
2023-02-04T10:01:22.150Z,4.13
2023-02-04T10:03:51.831Z,4.85
2023-02-04T10:06:22.076Z,8.70
2023-02-04T10:08:52.058Z,6.15
2023-02-04T10:11:22.703Z,4.60
2023-02-04T10:13:54.409Z,6.40
2023-02-04T10:16:30.487Z,6.90
2023-02-04T10:19:03.855Z,5.43
2023-02-04T10:21:40.092Z,6.15
2023-02-04T10:24:15.708Z,3.97
2023-02-04T10:26:44.233Z,7.03
2023-02-04T10:29:19.906Z,5.68
2023-02-04T10:31:50.851Z,5.65
2023-02-04T10:34:34.865Z,4.43
2023-02-04T10:37:19.337Z,4.15
2023-02-04T10:39:47.776Z,7.43
2023-02-04T10:42:30.127Z,4.97
2023-02-04T10:44:59.920Z,4.05
2023-02-04T10:47:32.386Z,3.90
2023-02-04T10:50:07.954Z,4.28
2023-02-04T10:52:42.111Z,4.63
2023-02-04T10:55:23.695Z,6.18
2023-02-04T10:57:54.048Z,5.78
2023-02-04T11:00:25.197Z,6.00
2023-02-04T11:02:53.411Z,8.15
2023-02-04T11:05:30.107Z,6.32
2023-02-04T11:07:58.562Z,4.60
2023-02-04T11:10:34.715Z,8.80
2023-02-04T11:13:06.375Z,3.67
2023-02-04T11:15:50.514Z,10.00
2023-02-04T11:18:21.733Z,5.18
2023-02-04T11:20:52.399Z,4.25
2023-02-04T11:23:27.133Z,4.82
2023-02-04T11:26:14.544Z,11.90
2023-02-04T11:28:49.084Z,5.28
2023-02-04T11:31:20.384Z,6.72
2023-02-04T11:33:51.024Z,11.77
2023-02-04T11:36:19.073Z,6.15
2023-02-04T11:38:49.587Z,4.85
2023-02-04T11:41:25.248Z,6.00
2023-02-04T11:43:54.841Z,3.35
2023-02-04T11:46:27.121Z,3.10
2023-02-04T11:48:58.067Z,6.45
2023-02-04T11:51:33.286Z,4.75
2023-02-04T11:54:01.683Z,5.07
2023-02-04T11:56:30.406Z,5.35
2023-02-04T11:58:59.044Z,11.73
2023-02-04T12:01:35.675Z,4.95
2023-02-04T12:04:07.796Z,3.67
2023-02-04T12:06:37.501Z,6.65
2023-02-04T12:09:32.641Z,3.65
2023-02-04T12:12:04.200Z,5.38
2023-02-04T12:14:37.600Z,6.22
2023-02-04T12:17:19.637Z,5.45
2023-02-04T12:19:47.996Z,5.35
2023-02-04T12:22:17.562Z,3.83
2023-02-04T12:24:45.861Z,2.85
2023-02-04T12:27:13.657Z,4.35
2023-02-04T12:29:42.064Z,6.38
2023-02-04T12:32:10.361Z,11.55
2023-02-04T12:34:38.617Z,8.02
2023-02-04T12:37:06.352Z,6.30
2023-02-04T12:39:35.053Z,13.90
2023-02-04T12:42:04.707Z,8.98
2023-02-04T12:44:33.081Z,5.70
2023-02-04T12:47:00.954Z,15.13
2023-02-04T12:49:29.256Z,14.00
2023-02-04T12:51:59.480Z,15.32
2023-02-04T12:54:27.748Z,9.75
2023-02-04T12:56:58.426Z,7.32
2023-02-04T12:59:26.794Z,7.95
2023-02-04T13:01:54.751Z,11.15
2023-02-04T13:04:23.040Z,16.60
2023-02-04T13:06:50.924Z,5.82
2023-02-04T13:09:19.270Z,7.57
2023-02-04T13:11:47.106Z,9.32
2023-02-04T13:14:15.308Z,5.95
2023-02-04T13:16:43.164Z,7.22
2023-02-04T13:19:11.381Z,6.70
2023-02-04T13:21:39.102Z,6.03
2023-02-04T13:24:07.346Z,8.95
2023-02-04T13:26:35.105Z,8.90
2023-02-04T13:29:03.816Z,9.20
2023-02-04T13:31:31.821Z,8.55
2023-02-04T13:34:00.223Z,6.18
2023-02-04T13:36:28.740Z,5.65
2023-02-04T13:38:57.288Z,6.57
2023-02-04T13:41:25.100Z,6.47
2023-02-04T13:43:53.779Z,8.68
2023-02-04T13:46:22.556Z,6.05
2023-02-04T13:48:51.199Z,7.95
2023-02-04T13:51:19.237Z,9.82
2023-02-04T13:53:47.602Z,4.85
2023-02-04T13:56:16.354Z,6.40
2023-02-04T13:58:45.802Z,7.32
2023-02-04T14:01:14.847Z,7.80
2023-02-04T14:03:44.180Z,7.65
2023-02-04T14:06:12.063Z,7.10
2023-02-04T14:08:40.270Z,5.68
2023-02-04T14:11:08.044Z,3.95
2023-02-04T14:13:36.545Z,4.22
2023-02-04T14:16:05.670Z,3.20
2023-02-04T14:18:34.103Z,3.13
2023-02-04T14:21:01.924Z,6.10
2023-02-04T14:23:30.301Z,3.72
2023-02-04T14:25:58.093Z,4.43
2023-02-04T14:28:26.315Z,3.55
2023-02-04T14:30:55.166Z,3.08
2023-02-04T14:33:23.570Z,2.42
2023-02-04T14:35:51.408Z,2.90
2023-02-04T14:38:19.780Z,2.58
2023-02-04T14:40:47.888Z,4.38
2023-02-04T14:43:16.281Z,4.07
2023-02-04T14:45:44.960Z,6.07
2023-02-04T14:48:13.177Z,2.60
2023-02-04T14:50:41.177Z,3.50
2023-02-04T14:53:10.165Z,6.47
2023-02-04T14:55:38.069Z,5.00
2023-02-04T14:58:06.350Z,10.50
2023-02-04T15:00:34.667Z,5.05
2023-02-04T15:03:03.033Z,8.15
2023-02-04T15:05:31.002Z,7.03
2023-02-04T15:07:59.206Z,9.98
2023-02-04T15:10:27.091Z,9.13
2023-02-04T15:12:55.640Z,8.05
2023-02-04T15:15:23.608Z,8.18
2023-02-04T15:17:51.845Z,11.35
2023-02-04T15:20:19.838Z,16.63
2023-02-04T15:22:52.127Z,12.30
2023-02-04T15:25:20.042Z,12.05
2023-02-04T15:27:48.786Z,9.05
2023-02-04T15:30:18.066Z,8.70
2023-02-04T15:32:46.533Z,9.32
2023-02-04T15:35:14.568Z,8.02
2023-02-04T15:37:42.890Z,9.43
2023-02-04T15:40:11.888Z,15.20
2023-02-04T15:42:41.404Z,14.93
2023-02-04T15:45:09.847Z,10.57
2023-02-04T15:47:37.934Z,22.67
2023-02-04T15:50:08.935Z,15.60
2023-02-04T15:52:37.897Z,15.88
2023-02-04T15:55:06.304Z,9.95
2023-02-04T15:57:34.844Z,6.28
2023-02-04T16:00:04.090Z,7.45
2023-02-04T16:02:33.068Z,8.60
2023-02-04T16:05:01.097Z,7.75
2023-02-04T16:07:29.290Z,9.82
2023-02-04T16:09:57.541Z,9.88
2023-02-04T16:12:26.030Z,13.77
2023-02-04T16:14:53.940Z,14.18
2023-02-04T16:17:22.108Z,15.35
2023-02-04T16:19:49.855Z,17.05
2023-02-04T16:22:18.175Z,14.50
2023-02-04T16:24:46.026Z,11.93
2023-02-04T16:27:14.777Z,8.70
2023-02-04T16:29:43.582Z,5.82
2023-02-04T16:32:11.877Z,11.13
2023-02-04T16:34:39.684Z,8.98
2023-02-04T16:37:08.238Z,7.82
2023-02-04T16:39:39.208Z,8.13
2023-02-04T16:42:09.238Z,10.05
2023-02-04T16:44:37.709Z,12.98
2023-02-04T16:47:07.452Z,12.73
2023-02-04T16:49:35.701Z,12.90
2023-02-04T16:52:05.618Z,11.95
2023-02-04T16:54:35.071Z,18.83
2023-02-04T16:57:04.107Z,17.02
2023-02-04T16:59:32.560Z,19.23
2023-02-04T17:02:01.236Z,24.02
2023-02-04T17:04:32.605Z,16.58
2023-02-04T17:07:00.974Z,13.10
2023-02-04T17:09:29.497Z,16.25
2023-02-04T17:11:57.657Z,13.38
2023-02-04T17:14:27.204Z,10.45
2023-02-04T17:16:55.566Z,11.57
2023-02-04T17:19:24.368Z,13.55
2023-02-04T17:21:52.658Z,11.68
2023-02-04T17:24:20.969Z,10.05
2023-02-04T17:26:49.627Z,12.30
2023-02-04T17:29:18.204Z,11.10
2023-02-04T17:31:46.418Z,10.27
2023-02-04T17:34:14.354Z,11.93
2023-02-04T17:36:42.837Z,9.23
2023-02-04T17:39:10.791Z,9.82
2023-02-04T17:41:39.641Z,11.15
2023-02-04T17:44:07.763Z,10.32
2023-02-04T17:46:36.653Z,11.57
2023-02-04T17:49:04.573Z,13.52
2023-02-04T17:51:33.083Z,13.45
2023-02-04T17:54:02.022Z,15.95
2023-02-04T17:56:30.435Z,13.57
2023-02-04T17:58:58.466Z,14.75
2023-02-04T18:01:26.735Z,13.57
2023-02-04T18:03:57.079Z,17.20
2023-02-04T18:06:30.416Z,13.75
2023-02-04T18:09:02.767Z,13.23
2023-02-04T18:11:38.158Z,12.93
2023-02-04T18:14:18.773Z,17.90
2023-02-04T18:16:48.930Z,11.40
2023-02-04T18:19:31.605Z,14.05
2023-02-04T18:22:00.619Z,21.27
2023-02-04T18:24:36.418Z,19.42
2023-02-04T18:27:19.661Z,16.05
2023-02-04T18:29:50.655Z,16.00
2023-02-04T18:32:26.195Z,13.25
2023-02-04T18:34:56.074Z,16.40
2023-02-04T18:37:37.283Z,12.60
2023-02-04T18:40:11.410Z,15.25
2023-02-04T18:42:44.130Z,17.38
2023-02-04T18:45:34.404Z,13.73
2023-02-04T18:48:20.693Z,13.73
2023-02-04T18:50:52.213Z,13.68
2023-02-04T18:53:28.497Z,16.60
2023-02-04T18:56:02.104Z,13.48
2023-02-04T18:58:45.674Z,15.02
2023-02-04T19:01:28.638Z,16.17
2023-02-04T19:04:04.047Z,16.13
2023-02-04T19:06:33.512Z,15.63
2023-02-04T19:09:18.960Z,14.48
2023-02-04T19:11:48.937Z,16.98
2023-02-04T19:14:43.100Z,17.13
2023-02-04T19:17:15.557Z,14.05
2023-02-04T19:19:55.440Z,20.17
2023-02-04T19:22:38.335Z,13.95
2023-02-04T19:25:38.680Z,13.20
2023-02-04T19:28:37.539Z,18.17
2023-02-04T19:31:07.570Z,18.70
2023-02-04T19:33:42.750Z,14.68
2023-02-04T19:36:40.277Z,13.67
2023-02-04T19:39:38.687Z,15.57
2023-02-04T19:42:34.365Z,16.08
2023-02-04T19:45:26.436Z,13.45
2023-02-04T19:47:56.706Z,15.38
2023-02-04T19:50:32.300Z,13.13
2023-02-04T19:53:04.068Z,14.07
2023-02-04T19:55:32.452Z,18.42
2023-02-04T19:58:18.287Z,18.33
2023-02-04T20:01:08.550Z,19.92
2023-02-04T20:03:40.032Z,15.88
2023-02-04T20:06:21.167Z,13.93
2023-02-04T20:08:59.947Z,12.63
2023-02-04T20:11:35.163Z,13.52
2023-02-04T20:14:14.486Z,12.95
2023-02-04T20:16:51.807Z,12.73
2023-02-04T20:19:27.310Z,12.18
2023-02-04T20:22:14.646Z,14.60
2023-02-04T20:27:20.404Z,11.57
2023-02-04T20:29:53.154Z,17.15
2023-02-04T20:32:26.820Z,11.95
2023-02-04T20:35:07.399Z,13.75
2023-02-04T20:37:36.254Z,12.75
2023-02-04T20:40:29.029Z,13.18
2023-02-04T20:43:05.976Z,16.60
2023-02-04T20:45:45.668Z,12.43
2023-02-04T20:48:16.764Z,13.77
2023-02-04T20:50:53.368Z,14.93
2023-02-04T20:53:38.022Z,10.57
2023-02-04T20:56:29.011Z,11.90
2023-02-04T20:59:12.158Z,14.02
2023-02-04T21:01:52.269Z,14.55
2023-02-04T21:04:56.207Z,13.20
2023-02-04T21:07:24.688Z,12.32
2023-02-04T21:09:52.540Z,12.50
2023-02-04T21:12:21.839Z,9.77
2023-02-04T21:14:50.652Z,11.82
2023-02-04T21:17:18.865Z,14.43
2023-02-04T21:19:47.692Z,10.30
2023-02-04T21:22:16.730Z,13.73
2023-02-04T21:24:45.831Z,11.35
2023-02-04T21:27:14.258Z,10.68
2023-02-04T21:29:42.182Z,11.18
2023-02-04T21:32:13.055Z,9.68
2023-02-04T21:34:40.802Z,11.15
2023-02-04T21:37:09.234Z,10.38
2023-02-04T21:39:37.416Z,22.63
2023-02-04T21:42:11.518Z,14.52
2023-02-04T21:44:41.309Z,13.68
2023-02-04T21:47:09.492Z,8.95
2023-02-04T21:49:40.229Z,9.65
2023-02-04T21:52:10.306Z,7.63
2023-02-04T21:54:38.914Z,9.98
2023-02-04T21:57:07.206Z,9.38
2023-02-04T21:59:35.015Z,10.50
2023-02-04T22:02:04.421Z,10.57
2023-02-04T22:04:32.813Z,8.02
2023-02-04T22:07:02.775Z,8.05
2023-02-04T22:09:31.244Z,7.60
2023-02-04T22:12:00.678Z,8.68
2023-02-04T22:14:28.436Z,8.98
2023-02-04T22:16:56.952Z,11.18
2023-02-04T22:19:25.988Z,8.65
2023-02-04T22:21:54.337Z,11.23
2023-02-04T22:24:22.454Z,9.70
2023-02-04T22:26:52.096Z,10.10
2023-02-04T22:29:23.949Z,12.05
2023-02-04T22:31:52.358Z,12.43
2023-02-04T22:34:21.400Z,10.20
2023-02-04T22:36:49.736Z,12.70
2023-02-04T22:39:17.765Z,13.52
2023-02-04T22:41:46.620Z,12.80
2023-02-04T22:44:14.795Z,7.82
2023-02-04T22:46:43.183Z,8.30
2023-02-04T22:49:11.362Z,9.98
2023-02-04T22:51:39.712Z,9.80
2023-02-04T22:54:07.689Z,10.48
2023-02-04T22:56:36.938Z,9.00
2023-02-04T22:59:04.967Z,10.05
2023-02-04T23:01:35.628Z,7.90
2023-02-04T23:04:05.217Z,8.82
2023-02-04T23:06:34.613Z,7.03
2023-02-04T23:09:02.736Z,7.32
2023-02-04T23:11:30.994Z,7.78
2023-02-04T23:13:59.071Z,7.70
2023-02-04T23:16:27.263Z,7.78
2023-02-04T23:18:55.170Z,9.82
2023-02-04T23:21:23.450Z,5.97
2023-02-04T23:23:52.792Z,6.07
2023-02-04T23:26:21.854Z,6.95
2023-02-04T23:28:49.831Z,5.55
2023-02-04T23:31:17.944Z,6.13
2023-02-04T23:33:47.242Z,6.80
2023-02-04T23:36:15.450Z,7.30
2023-02-04T23:38:43.241Z,6.43
2023-02-04T23:41:11.580Z,7.68
2023-02-04T23:43:39.339Z,7.10
2023-02-04T23:46:07.477Z,8.82
2023-02-04T23:48:35.699Z,10.63
2023-02-04T23:51:04.110Z,9.80
2023-02-04T23:53:32.565Z,6.70
2023-02-04T23:56:01.171Z,6.78
2023-02-04T23:58:28.969Z,6.75
